createdAt,value
2018-12-05T00:03:07.890Z,88.79
2018-12-05T00:08:10.338Z,88.58
2018-12-05T00:13:12.742Z,88.58
2018-12-05T00:18:15.158Z,88.76
2018-12-05T00:23:17.585Z,88.56
2018-12-05T00:28:20.983Z,88.33
2018-12-05T00:33:23.389Z,88.53
2018-12-05T00:38:25.779Z,88.73
2018-12-05T00:43:28.186Z,88.64
2018-12-05T00:48:30.555Z,88.63
2018-12-05T00:53:33.215Z,88.51
2018-12-05T00:58:35.626Z,87.29
2018-12-05T01:03:38.174Z,88.45
2018-12-05T01:08:40.531Z,87.69
2018-12-05T01:13:44.073Z,87.71
2018-12-05T01:18:46.527Z,89.36
2018-12-05T01:23:49.211Z,88.06
2018-12-05T01:28:51.723Z,88.08
2018-12-05T01:33:54.218Z,87.75
2018-12-05T01:38:57.302Z,88.23
2018-12-05T01:43:59.774Z,89.08
2018-12-05T01:49:02.489Z,89.46
2018-12-05T01:54:05.153Z,88.73
2018-12-05T01:59:07.574Z,88.08
2018-12-05T02:04:09.967Z,88.64
2018-12-05T02:09:12.465Z,88.82
2018-12-05T02:14:15.012Z,89.04
2018-12-05T02:19:17.454Z,88.47
2018-12-05T02:24:19.943Z,88.71
2018-12-05T02:29:24.403Z,88.67
2018-12-05T02:34:26.952Z,89.06
2018-12-05T02:39:29.329Z,88.31
2018-12-05T02:44:31.935Z,89.42
2018-12-05T02:49:34.426Z,89.35
2018-12-05T02:54:36.834Z,90.13
2018-12-05T02:59:39.234Z,89.65
2018-12-05T03:04:42.001Z,89.22
2018-12-05T03:09:44.443Z,88.71
2018-12-05T03:14:46.855Z,88.75
2018-12-05T03:19:49.401Z,89.09
2018-12-05T03:24:52.334Z,88.18
2018-12-05T03:29:55.030Z,88.33
2018-12-05T03:34:57.462Z,88.84
2018-12-05T03:40:00.077Z,89.13
2018-12-05T03:45:02.577Z,88.06
2018-12-05T03:50:05.438Z,88.44
2018-12-05T03:55:08.250Z,88.24
2018-12-05T04:00:10.795Z,88.54
2018-12-05T04:05:13.255Z,88.72
2018-12-05T04:10:15.926Z,88.66
2018-12-05T04:15:18.399Z,88.50
2018-12-05T04:20:20.876Z,88.56
2018-12-05T04:25:23.271Z,88.90
2018-12-05T04:30:25.899Z,88.52
2018-12-05T04:35:28.571Z,88.43
2018-12-05T04:40:31.034Z,88.21
2018-12-05T04:45:34.364Z,87.93
2018-12-05T04:50:36.734Z,87.67
2018-12-05T04:55:39.167Z,88.45
2018-12-05T05:00:41.695Z,87.96
2018-12-05T05:05:44.108Z,88.23
2018-12-05T05:10:47.113Z,87.81
2018-12-05T05:15:49.623Z,88.67
2018-12-05T05:20:52.018Z,88.18
2018-12-05T05:25:54.407Z,88.18
2018-12-05T05:31:03.963Z,88.51
2018-12-05T05:36:06.422Z,88.88
2018-12-05T05:41:08.816Z,88.31
2018-12-05T05:46:11.198Z,88.33
2018-12-05T05:51:13.596Z,87.81
2018-12-05T05:56:15.937Z,88.33
2018-12-05T06:01:25.593Z,87.97
2018-12-05T06:06:27.990Z,88.37
2018-12-05T06:11:30.352Z,87.23
2018-12-05T06:16:32.689Z,87.78
2018-12-05T06:21:35.486Z,88.06
2018-12-05T06:26:37.842Z,88.09
2018-12-05T06:31:40.236Z,87.89
2018-12-05T06:36:42.920Z,88.05
2018-12-05T06:41:45.447Z,86.74
2018-12-05T06:46:47.883Z,87.21
2018-12-05T06:51:50.699Z,87.05
2018-12-05T06:56:53.482Z,86.88
2018-12-05T07:01:55.817Z,87.06
2018-12-05T07:06:58.294Z,86.83
2018-12-05T07:12:00.759Z,86.07
2018-12-05T07:17:03.195Z,86.17
2018-12-05T07:22:05.613Z,86.61
2018-12-05T07:27:07.999Z,86.00
2018-12-05T07:32:10.387Z,86.13
2018-12-05T07:37:12.806Z,85.33
2018-12-05T07:42:15.173Z,85.31
2018-12-05T07:47:17.620Z,85.95
2018-12-05T07:52:19.971Z,85.61
2018-12-05T07:57:22.311Z,85.03
2018-12-05T08:02:24.881Z,84.54
2018-12-05T08:07:27.280Z,84.64
2018-12-05T08:12:29.745Z,84.40
2018-12-05T08:17:32.435Z,84.61
2018-12-05T08:22:34.833Z,84.44
2018-12-05T08:27:37.451Z,84.21
2018-12-05T08:32:40.111Z,84.50
2018-12-05T08:37:42.466Z,84.44
2018-12-05T08:42:44.897Z,84.28
2018-12-05T08:47:47.419Z,83.74
2018-12-05T08:52:50.088Z,84.06
2018-12-05T08:57:52.546Z,83.89
2018-12-05T09:02:55.113Z,83.69
2018-12-05T09:07:57.657Z,83.22
2018-12-05T09:13:00.424Z,83.04
2018-12-05T09:18:02.818Z,82.76
2018-12-05T09:23:05.198Z,82.41
2018-12-05T09:28:07.692Z,82.79
2018-12-05T09:33:10.102Z,82.55
2018-12-05T09:38:12.406Z,82.87
2018-12-05T09:43:14.914Z,82.39
2018-12-05T09:48:17.280Z,82.54
2018-12-05T09:53:19.777Z,83.05
2018-12-05T09:58:22.170Z,82.55
2018-12-05T10:03:24.619Z,83.13
2018-12-05T10:08:27.396Z,82.84
2018-12-05T10:13:29.775Z,82.36
2018-12-05T10:18:32.749Z,82.94
2018-12-05T10:23:35.216Z,82.40
2018-12-05T10:28:37.679Z,83.08
2018-12-05T10:33:40.127Z,82.66
2018-12-05T10:38:42.615Z,82.69
2018-12-05T10:43:45.057Z,82.80
2018-12-05T10:48:47.731Z,82.90
2018-12-05T10:53:50.298Z,83.17
2018-12-05T10:58:52.779Z,83.13
2018-12-05T11:03:55.257Z,84.05
2018-12-05T11:09:03.219Z,82.99
2018-12-05T11:14:11.831Z,84.26
2018-12-05T11:19:19.926Z,84.04
2018-12-05T11:24:28.137Z,84.10
2018-12-05T11:29:30.795Z,84.30
2018-12-05T11:34:33.833Z,84.23
2018-12-05T11:39:36.683Z,84.38
2018-12-05T11:44:39.082Z,84.12
2018-12-05T11:49:41.787Z,83.98
2018-12-05T11:54:44.230Z,84.19
2018-12-05T11:59:46.737Z,84.23
2018-12-05T12:04:50.101Z,84.28
2018-12-05T12:09:52.668Z,84.33
2018-12-05T12:14:55.132Z,83.62
2018-12-05T12:19:57.463Z,83.57
2018-12-05T12:24:59.896Z,83.58
2018-12-05T12:30:02.827Z,83.23
2018-12-05T12:35:06.474Z,83.53
2018-12-05T12:40:08.939Z,83.42
2018-12-05T12:45:11.429Z,83.32
2018-12-05T12:50:13.884Z,83.61
2018-12-05T12:55:16.239Z,83.27
2018-12-05T13:00:18.697Z,82.91
2018-12-05T13:05:21.473Z,82.73
2018-12-05T13:10:24.350Z,82.46
2018-12-05T13:15:26.671Z,81.53
2018-12-05T13:20:29.206Z,80.55
2018-12-05T13:25:31.724Z,80.18
2018-12-05T13:30:34.490Z,80.14
2018-12-05T13:35:37.555Z,79.42
2018-12-05T13:40:40.642Z,79.06
2018-12-05T13:45:43.096Z,79.42
2018-12-05T13:50:46.894Z,79.17
2018-12-05T13:55:49.359Z,79.13
2018-12-05T14:00:52.027Z,79.55
2018-12-05T14:05:54.399Z,79.71
2018-12-05T14:10:57.070Z,80.31
2018-12-05T14:21:08.548Z,81.78
2018-12-05T14:26:11.231Z,82.38
2018-12-05T14:31:13.717Z,82.47
2018-12-05T14:36:16.198Z,82.63
2018-12-05T14:41:18.566Z,82.92
2018-12-05T14:46:21.026Z,83.54
2018-12-05T14:51:23.472Z,83.84
2018-12-05T14:56:25.927Z,83.74
2018-12-05T15:01:28.374Z,84.27
2018-12-05T15:06:30.798Z,84.18
2018-12-05T15:11:33.174Z,84.68
2018-12-05T15:16:36.155Z,84.09
2018-12-05T15:21:38.817Z,84.19
2018-12-05T15:26:41.424Z,84.57
2018-12-05T15:31:43.884Z,84.02
2018-12-05T15:36:46.505Z,84.21
2018-12-05T15:41:49.742Z,83.82
2018-12-05T15:46:52.424Z,83.77
2018-12-05T15:51:54.831Z,83.76
2018-12-05T15:56:57.490Z,83.93
2018-12-05T16:02:00.933Z,84.09
2018-12-05T16:07:03.547Z,84.03
2018-12-05T16:12:06.068Z,83.96
2018-12-05T16:17:08.723Z,83.92
2018-12-05T16:22:11.231Z,84.41
2018-12-05T16:27:14.219Z,83.99
2018-12-05T16:32:16.608Z,83.91
2018-12-05T16:37:18.982Z,84.06
2018-12-05T16:42:21.345Z,84.62
2018-12-05T16:47:23.695Z,84.62
2018-12-05T16:52:26.072Z,85.13
2018-12-05T16:57:29.850Z,85.10
2018-12-05T17:02:32.471Z,85.36
2018-12-05T17:07:34.849Z,85.08
2018-12-05T17:12:37.273Z,85.65
2018-12-05T17:17:39.720Z,85.81
2018-12-05T17:22:42.054Z,85.39
2018-12-05T17:27:44.537Z,85.32
2018-12-05T17:32:47.010Z,85.53
2018-12-05T17:37:49.689Z,86.01
2018-12-05T17:42:52.033Z,85.91
2018-12-05T17:47:54.411Z,86.12
2018-12-05T17:52:56.862Z,86.02
2018-12-05T17:57:59.866Z,86.40
2018-12-05T18:03:02.378Z,86.24
2018-12-05T18:08:04.845Z,86.03
2018-12-05T18:13:07.267Z,86.33
2018-12-05T18:18:09.676Z,86.50
2018-12-05T18:23:12.122Z,86.49
2018-12-05T18:28:14.508Z,86.63
2018-12-05T18:33:16.826Z,86.44
2018-12-05T18:38:19.670Z,86.41
2018-12-05T18:43:22.153Z,87.27
2018-12-05T18:48:24.534Z,86.84
2018-12-05T18:53:26.907Z,86.82
2018-12-05T18:58:29.367Z,86.66
2018-12-05T19:03:31.810Z,86.81
2018-12-05T19:08:34.685Z,86.29
2018-12-05T19:13:41.806Z,86.58
2018-12-05T19:18:44.321Z,86.62
2018-12-05T19:23:47.229Z,86.93
2018-12-05T19:28:50.325Z,86.83
2018-12-05T19:33:53.034Z,87.11
2018-12-05T19:38:55.566Z,86.96
2018-12-05T19:43:58.387Z,87.35
2018-12-05T19:49:00.707Z,86.97
2018-12-05T19:54:03.169Z,87.72
2018-12-05T19:59:05.553Z,87.42
2018-12-05T20:04:08.575Z,87.54
2018-12-05T20:09:11.062Z,87.62
2018-12-05T20:14:19.418Z,87.67
2018-12-05T20:19:21.772Z,87.56
2018-12-05T20:24:24.266Z,87.52
2018-12-05T20:29:26.661Z,87.13
2018-12-05T20:34:29.354Z,87.23
2018-12-05T20:39:31.767Z,87.60
2018-12-05T20:44:35.632Z,87.52
2018-12-05T20:49:38.164Z,87.45
2018-12-05T20:54:40.734Z,87.24
2018-12-05T20:59:43.691Z,87.14
2018-12-05T21:04:46.185Z,87.54
2018-12-05T21:09:48.587Z,87.18
2018-12-05T21:14:51.326Z,86.97
2018-12-05T21:19:53.743Z,87.00
2018-12-05T21:24:56.188Z,86.93
2018-12-05T21:29:58.599Z,87.32
2018-12-05T21:35:01.023Z,87.07
2018-12-05T21:40:04.039Z,87.23
2018-12-05T21:45:06.755Z,87.40
2018-12-05T21:50:09.523Z,87.48
2018-12-05T21:55:12.050Z,87.23
2018-12-05T22:00:14.761Z,87.00
2018-12-05T22:05:17.183Z,87.18
2018-12-05T22:10:19.567Z,87.16
2018-12-05T22:15:22.106Z,87.38
2018-12-05T22:20:24.695Z,87.13
2018-12-05T22:25:27.083Z,87.26
2018-12-05T22:30:29.471Z,87.63
2018-12-05T22:35:31.915Z,87.46
2018-12-05T22:40:34.336Z,87.70
2018-12-05T22:45:36.814Z,87.63
2018-12-05T22:50:39.352Z,87.58
2018-12-05T22:55:41.767Z,87.56
2018-12-05T23:00:49.642Z,87.49
2018-12-05T23:05:52.211Z,87.57
2018-12-05T23:10:54.722Z,87.23
2018-12-05T23:16:29.738Z,87.64
2018-12-05T23:21:32.262Z,87.29
2018-12-05T23:26:34.667Z,87.21
2018-12-05T23:31:37.161Z,87.60
2018-12-05T23:36:39.655Z,87.74
2018-12-05T23:41:42.183Z,87.62
2018-12-05T23:46:44.866Z,87.26
2018-12-05T23:51:47.490Z,87.28
2018-12-05T23:56:50.247Z,87.77
